sensor_id;sensor_type;location;lat;lon;timestamp;temperature;humidity
995;DHT22;486;48.726;8.964;2022-10-17T00:01:37;14.40;99.90
995;DHT22;486;48.726;8.964;2022-10-17T00:04:06;14.40;99.90
995;DHT22;486;48.726;8.964;2022-10-17T00:06:38;14.30;99.90
995;DHT22;486;48.726;8.964;2022-10-17T00:09:07;14.20;99.90
995;DHT22;486;48.726;8.964;2022-10-17T00:11:36;14.20;99.90
995;DHT22;486;48.726;8.964;2022-10-17T00:14:05;14.10;99.90
995;DHT22;486;48.726;8.964;2022-10-17T00:16:35;14.00;99.90
995;DHT22;486;48.726;8.964;2022-10-17T00:19:06;14.00;99.90
995;DHT22;486;48.726;8.964;2022-10-17T00:21:37;13.90;99.90
995;DHT22;486;48.726;8.964;2022-10-17T00:24:07;13.80;99.90
995;DHT22;486;48.726;8.964;2022-10-17T00:26:36;13.70;99.90
995;DHT22;486;48.726;8.964;2022-10-17T00:29:05;13.70;99.90
995;DHT22;486;48.726;8.964;2022-10-17T00:31:33;13.70;99.90
995;DHT22;486;48.726;8.964;2022-10-17T00:34:04;13.60;99.90
995;DHT22;486;48.726;8.964;2022-10-17T00:36:32;13.60;99.90
995;DHT22;486;48.726;8.964;2022-10-17T00:39:04;13.60;99.90
995;DHT22;486;48.726;8.964;2022-10-17T00:41:33;13.50;99.90
995;DHT22;486;48.726;8.964;2022-10-17T00:44:06;13.50;99.90
995;DHT22;486;48.726;8.964;2022-10-17T00:47:16;13.50;99.90
995;DHT22;486;48.726;8.964;2022-10-17T00:49:47;13.50;99.90
995;DHT22;486;48.726;8.964;2022-10-17T00:52:20;13.50;99.90
995;DHT22;486;48.726;8.964;2022-10-17T00:54:54;13.40;99.90
995;DHT22;486;48.726;8.964;2022-10-17T00:57:26;13.30;99.90
995;DHT22;486;48.726;8.964;2022-10-17T00:59:58;13.30;99.90
995;DHT22;486;48.726;8.964;2022-10-17T01:02:31;13.30;99.90
995;DHT22;486;48.726;8.964;2022-10-17T01:05:00;13.20;99.90
995;DHT22;486;48.726;8.964;2022-10-17T01:07:30;13.20;99.90
995;DHT22;486;48.726;8.964;2022-10-17T01:10:03;13.20;99.90
995;DHT22;486;48.726;8.964;2022-10-17T01:12:41;13.20;99.90
995;DHT22;486;48.726;8.964;2022-10-17T01:15:22;13.20;99.90
995;DHT22;486;48.726;8.964;2022-10-17T01:18:06;13.10;99.90
995;DHT22;486;48.726;8.964;2022-10-17T01:21:01;13.10;99.90
995;DHT22;486;48.726;8.964;2022-10-17T01:30:23;13.00;99.90
995;DHT22;486;48.726;8.964;2022-10-17T01:33:05;13.00;99.90
995;DHT22;486;48.726;8.964;2022-10-17T01:35:40;13.00;99.90
995;DHT22;486;48.726;8.964;2022-10-17T01:38:13;13.00;99.90
995;DHT22;486;48.726;8.964;2022-10-17T01:40:50;12.90;99.90
995;DHT22;486;48.726;8.964;2022-10-17T01:43:27;13.00;99.90
995;DHT22;486;48.726;8.964;2022-10-17T01:46:05;13.00;99.90
995;DHT22;486;48.726;8.964;2022-10-17T01:48:41;12.90;99.90
995;DHT22;486;48.726;8.964;2022-10-17T01:51:16;12.90;99.90
995;DHT22;486;48.726;8.964;2022-10-17T01:53:51;12.90;99.90
995;DHT22;486;48.726;8.964;2022-10-17T01:56:24;12.80;99.90
995;DHT22;486;48.726;8.964;2022-10-17T01:58:56;12.80;99.90
995;DHT22;486;48.726;8.964;2022-10-17T02:01:30;12.70;99.90
995;DHT22;486;48.726;8.964;2022-10-17T02:04:03;12.70;99.90
995;DHT22;486;48.726;8.964;2022-10-17T02:06:34;12.70;99.90
995;DHT22;486;48.726;8.964;2022-10-17T02:09:19;12.70;99.90
995;DHT22;486;48.726;8.964;2022-10-17T02:12:09;12.70;99.90
995;DHT22;486;48.726;8.964;2022-10-17T02:14:57;12.70;99.90
995;DHT22;486;48.726;8.964;2022-10-17T02:17:50;12.70;99.90
995;DHT22;486;48.726;8.964;2022-10-17T02:20:32;12.70;99.90
995;DHT22;486;48.726;8.964;2022-10-17T02:23:09;12.70;99.90
995;DHT22;486;48.726;8.964;2022-10-17T02:25:45;12.70;99.90
995;DHT22;486;48.726;8.964;2022-10-17T02:28:21;12.60;99.90
995;DHT22;486;48.726;8.964;2022-10-17T02:31:06;12.60;99.90
995;DHT22;486;48.726;8.964;2022-10-17T02:33:40;12.60;99.90
995;DHT22;486;48.726;8.964;2022-10-17T02:36:18;12.70;99.90
995;DHT22;486;48.726;8.964;2022-10-17T02:38:49;12.70;99.90
995;DHT22;486;48.726;8.964;2022-10-17T02:41:18;12.60;99.90
995;DHT22;486;48.726;8.964;2022-10-17T02:43:48;12.60;99.90
995;DHT22;486;48.726;8.964;2022-10-17T02:46:21;12.60;99.90
995;DHT22;486;48.726;8.964;2022-10-17T02:48:53;12.60;99.90
995;DHT22;486;48.726;8.964;2022-10-17T02:51:29;12.50;99.90
995;DHT22;486;48.726;8.964;2022-10-17T02:54:09;12.40;99.90
995;DHT22;486;48.726;8.964;2022-10-17T02:56:47;12.30;99.90
995;DHT22;486;48.726;8.964;2022-10-17T02:59:20;12.20;99.90
995;DHT22;486;48.726;8.964;2022-10-17T03:01:51;12.20;99.90
995;DHT22;486;48.726;8.964;2022-10-17T03:04:20;12.20;99.90
995;DHT22;486;48.726;8.964;2022-10-17T03:06:51;12.10;99.90
995;DHT22;486;48.726;8.964;2022-10-17T03:09:21;12.10;99.90
995;DHT22;486;48.726;8.964;2022-10-17T03:11:50;12.10;99.90
995;DHT22;486;48.726;8.964;2022-10-17T03:14:20;12.10;99.90
995;DHT22;486;48.726;8.964;2022-10-17T03:16:49;12.10;99.90
995;DHT22;486;48.726;8.964;2022-10-17T03:19:18;12.00;99.90
995;DHT22;486;48.726;8.964;2022-10-17T03:21:47;12.00;99.90
995;DHT22;486;48.726;8.964;2022-10-17T03:24:19;12.00;99.90
995;DHT22;486;48.726;8.964;2022-10-17T03:26:48;12.00;99.90
995;DHT22;486;48.726;8.964;2022-10-17T03:29:17;11.90;99.90
995;DHT22;486;48.726;8.964;2022-10-17T03:31:46;11.90;99.90
995;DHT22;486;48.726;8.964;2022-10-17T03:34:15;11.90;99.90
995;DHT22;486;48.726;8.964;2022-10-17T03:36:44;11.90;99.90
995;DHT22;486;48.726;8.964;2022-10-17T03:39:14;11.90;99.90
995;DHT22;486;48.726;8.964;2022-10-17T03:41:46;11.80;99.90
995;DHT22;486;48.726;8.964;2022-10-17T03:44:15;11.90;99.90
995;DHT22;486;48.726;8.964;2022-10-17T03:46:44;11.80;99.90
995;DHT22;486;48.726;8.964;2022-10-17T03:49:14;11.80;99.90
995;DHT22;486;48.726;8.964;2022-10-17T03:51:43;11.70;99.90
995;DHT22;486;48.726;8.964;2022-10-17T03:54:14;11.70;99.90
995;DHT22;486;48.726;8.964;2022-10-17T03:56:45;11.70;99.90
995;DHT22;486;48.726;8.964;2022-10-17T03:59:17;11.60;99.90
995;DHT22;486;48.726;8.964;2022-10-17T04:01:54;11.70;99.90
995;DHT22;486;48.726;8.964;2022-10-17T04:04:23;11.70;99.90
995;DHT22;486;48.726;8.964;2022-10-17T04:06:52;11.70;99.90
995;DHT22;486;48.726;8.964;2022-10-17T04:09:21;11.80;99.90
995;DHT22;486;48.726;8.964;2022-10-17T04:12:04;11.80;99.90
995;DHT22;486;48.726;8.964;2022-10-17T04:14:36;11.90;99.90
995;DHT22;486;48.726;8.964;2022-10-17T04:17:05;11.90;99.90
995;DHT22;486;48.726;8.964;2022-10-17T04:19:35;11.90;99.90
995;DHT22;486;48.726;8.964;2022-10-17T04:22:04;11.90;99.90
995;DHT22;486;48.726;8.964;2022-10-17T04:24:35;11.90;99.90
995;DHT22;486;48.726;8.964;2022-10-17T04:27:11;11.90;99.90
995;DHT22;486;48.726;8.964;2022-10-17T04:29:43;11.90;99.90
995;DHT22;486;48.726;8.964;2022-10-17T04:32:19;11.90;99.90
995;DHT22;486;48.726;8.964;2022-10-17T04:35:18;11.90;99.90
995;DHT22;486;48.726;8.964;2022-10-17T04:37:53;11.90;99.90
995;DHT22;486;48.726;8.964;2022-10-17T04:40:24;11.90;99.90
995;DHT22;486;48.726;8.964;2022-10-17T04:42:55;11.80;99.90
995;DHT22;486;48.726;8.964;2022-10-17T04:45:32;11.80;99.90
995;DHT22;486;48.726;8.964;2022-10-17T04:48:03;11.80;99.90
995;DHT22;486;48.726;8.964;2022-10-17T04:50:33;11.80;99.90
995;DHT22;486;48.726;8.964;2022-10-17T04:53:17;11.80;99.90
995;DHT22;486;48.726;8.964;2022-10-17T04:55:46;11.70;99.90
995;DHT22;486;48.726;8.964;2022-10-17T04:58:18;11.70;99.90
995;DHT22;486;48.726;8.964;2022-10-17T05:00:48;11.80;99.90
995;DHT22;486;48.726;8.964;2022-10-17T05:03:24;11.90;99.90
995;DHT22;486;48.726;8.964;2022-10-17T05:05:53;11.90;99.90
995;DHT22;486;48.726;8.964;2022-10-17T05:08:22;12.00;99.90
995;DHT22;486;48.726;8.964;2022-10-17T05:10:51;12.00;99.90
995;DHT22;486;48.726;8.964;2022-10-17T05:13:23;12.00;99.90
995;DHT22;486;48.726;8.964;2022-10-17T05:15:52;12.00;99.90
995;DHT22;486;48.726;8.964;2022-10-17T05:18:21;12.10;99.90
995;DHT22;486;48.726;8.964;2022-10-17T05:20:51;12.10;99.90
995;DHT22;486;48.726;8.964;2022-10-17T05:23:20;12.10;99.90
995;DHT22;486;48.726;8.964;2022-10-17T05:25:53;12.20;99.90
995;DHT22;486;48.726;8.964;2022-10-17T05:28:26;12.20;99.90
995;DHT22;486;48.726;8.964;2022-10-17T05:31:01;12.20;99.90
995;DHT22;486;48.726;8.964;2022-10-17T05:33:31;12.20;99.90
995;DHT22;486;48.726;8.964;2022-10-17T05:36:01;12.20;99.90
995;DHT22;486;48.726;8.964;2022-10-17T05:38:31;12.20;99.90
995;DHT22;486;48.726;8.964;2022-10-17T05:41:03;12.20;99.90
995;DHT22;486;48.726;8.964;2022-10-17T05:43:36;12.20;99.90
995;DHT22;486;48.726;8.964;2022-10-17T05:46:05;12.20;99.90
995;DHT22;486;48.726;8.964;2022-10-17T05:48:35;12.20;99.90
995;DHT22;486;48.726;8.964;2022-10-17T05:51:07;12.20;99.90
995;DHT22;486;48.726;8.964;2022-10-17T05:53:38;12.20;99.90
995;DHT22;486;48.726;8.964;2022-10-17T05:56:14;12.20;99.90
995;DHT22;486;48.726;8.964;2022-10-17T05:58:48;12.20;99.90
995;DHT22;486;48.726;8.964;2022-10-17T06:01:38;12.20;99.90
995;DHT22;486;48.726;8.964;2022-10-17T06:04:07;12.20;99.90
995;DHT22;486;48.726;8.964;2022-10-17T06:06:37;12.30;99.90
995;DHT22;486;48.726;8.964;2022-10-17T06:09:08;12.30;99.90
995;DHT22;486;48.726;8.964;2022-10-17T06:11:40;12.40;99.90
995;DHT22;486;48.726;8.964;2022-10-17T06:14:13;12.40;99.90
995;DHT22;486;48.726;8.964;2022-10-17T06:16:42;12.40;99.90
995;DHT22;486;48.726;8.964;2022-10-17T06:19:11;12.40;99.90
995;DHT22;486;48.726;8.964;2022-10-17T06:21:40;12.40;99.90
995;DHT22;486;48.726;8.964;2022-10-17T06:24:12;12.40;99.90
995;DHT22;486;48.726;8.964;2022-10-17T06:26:42;12.40;99.90
995;DHT22;486;48.726;8.964;2022-10-17T06:29:16;12.40;99.90
995;DHT22;486;48.726;8.964;2022-10-17T06:31:47;12.40;99.90
995;DHT22;486;48.726;8.964;2022-10-17T06:34:18;12.50;99.90
995;DHT22;486;48.726;8.964;2022-10-17T06:36:47;12.50;99.90
995;DHT22;486;48.726;8.964;2022-10-17T06:39:18;12.50;99.90
995;DHT22;486;48.726;8.964;2022-10-17T06:41:56;12.50;99.90
995;DHT22;486;48.726;8.964;2022-10-17T06:44:45;12.50;99.90
995;DHT22;486;48.726;8.964;2022-10-17T06:47:19;12.50;99.90
995;DHT22;486;48.726;8.964;2022-10-17T06:49:51;12.50;99.90
995;DHT22;486;48.726;8.964;2022-10-17T06:52:28;12.50;99.90
995;DHT22;486;48.726;8.964;2022-10-17T06:55:17;12.50;99.90
995;DHT22;486;48.726;8.964;2022-10-17T06:58:02;12.60;99.90
995;DHT22;486;48.726;8.964;2022-10-17T07:00:46;12.70;99.90
995;DHT22;486;48.726;8.964;2022-10-17T07:03:16;12.80;99.90
995;DHT22;486;48.726;8.964;2022-10-17T07:05:50;12.90;99.90
995;DHT22;486;48.726;8.964;2022-10-17T07:08:19;13.00;99.90
995;DHT22;486;48.726;8.964;2022-10-17T07:10:48;13.10;99.90
995;DHT22;486;48.726;8.964;2022-10-17T07:13:19;13.20;99.90
995;DHT22;486;48.726;8.964;2022-10-17T07:15:52;13.30;99.90
995;DHT22;486;48.726;8.964;2022-10-17T07:18:27;13.50;99.90
995;DHT22;486;48.726;8.964;2022-10-17T07:20:56;13.60;99.90
995;DHT22;486;48.726;8.964;2022-10-17T07:23:25;13.60;99.90
995;DHT22;486;48.726;8.964;2022-10-17T07:25:59;13.80;99.90
995;DHT22;486;48.726;8.964;2022-10-17T07:28:28;13.90;99.90
995;DHT22;486;48.726;8.964;2022-10-17T07:31:08;14.00;99.90
995;DHT22;486;48.726;8.964;2022-10-17T07:33:40;14.20;99.90
995;DHT22;486;48.726;8.964;2022-10-17T07:36:09;14.30;99.90
995;DHT22;486;48.726;8.964;2022-10-17T07:38:39;14.50;99.90
995;DHT22;486;48.726;8.964;2022-10-17T07:41:10;14.60;99.90
995;DHT22;486;48.726;8.964;2022-10-17T07:43:39;14.80;99.90
995;DHT22;486;48.726;8.964;2022-10-17T07:46:11;14.90;99.90
995;DHT22;486;48.726;8.964;2022-10-17T07:48:40;15.10;99.90
995;DHT22;486;48.726;8.964;2022-10-17T07:51:09;15.30;99.90
995;DHT22;486;48.726;8.964;2022-10-17T07:53:39;15.40;99.90
995;DHT22;486;48.726;8.964;2022-10-17T07:56:09;15.60;99.90
995;DHT22;486;48.726;8.964;2022-10-17T07:58:38;15.70;99.90
995;DHT22;486;48.726;8.964;2022-10-17T08:01:11;15.80;99.90
995;DHT22;486;48.726;8.964;2022-10-17T08:03:40;15.90;99.90
995;DHT22;486;48.726;8.964;2022-10-17T08:06:09;16.10;99.90
995;DHT22;486;48.726;8.964;2022-10-17T08:08:38;16.20;99.90
995;DHT22;486;48.726;8.964;2022-10-17T08:11:08;16.40;99.90
995;DHT22;486;48.726;8.964;2022-10-17T08:13:39;16.60;99.90
995;DHT22;486;48.726;8.964;2022-10-17T08:16:12;16.70;99.90
995;DHT22;486;48.726;8.964;2022-10-17T08:18:42;16.80;99.90
995;DHT22;486;48.726;8.964;2022-10-17T08:21:11;17.00;99.90
995;DHT22;486;48.726;8.964;2022-10-17T08:23:40;17.20;99.90
995;DHT22;486;48.726;8.964;2022-10-17T08:26:10;17.30;99.90
995;DHT22;486;48.726;8.964;2022-10-17T08:28:42;17.50;99.90
995;DHT22;486;48.726;8.964;2022-10-17T08:31:15;17.50;99.90
995;DHT22;486;48.726;8.964;2022-10-17T08:33:46;17.60;99.90
995;DHT22;486;48.726;8.964;2022-10-17T08:36:17;17.70;99.90
995;DHT22;486;48.726;8.964;2022-10-17T08:38:47;17.90;99.90
995;DHT22;486;48.726;8.964;2022-10-17T08:41:29;18.10;99.90
995;DHT22;486;48.726;8.964;2022-10-17T08:44:16;18.20;99.90
995;DHT22;486;48.726;8.964;2022-10-17T08:46:55;18.40;99.90
995;DHT22;486;48.726;8.964;2022-10-17T08:49:44;18.60;99.90
995;DHT22;486;48.726;8.964;2022-10-17T08:52:29;18.70;99.90
995;DHT22;486;48.726;8.964;2022-10-17T08:55:00;18.90;99.90
995;DHT22;486;48.726;8.964;2022-10-17T08:57:29;19.10;99.90
995;DHT22;486;48.726;8.964;2022-10-17T08:59:58;19.30;99.90
995;DHT22;486;48.726;8.964;2022-10-17T09:02:38;19.50;99.90
995;DHT22;486;48.726;8.964;2022-10-17T09:05:28;19.60;99.90
995;DHT22;486;48.726;8.964;2022-10-17T09:08:07;19.50;99.90
995;DHT22;486;48.726;8.964;2022-10-17T09:10:50;19.40;99.90
995;DHT22;486;48.726;8.964;2022-10-17T09:13:40;19.40;99.90
995;DHT22;486;48.726;8.964;2022-10-17T09:16:34;19.40;99.90
995;DHT22;486;48.726;8.964;2022-10-17T09:19:19;19.40;99.90
995;DHT22;486;48.726;8.964;2022-10-17T09:21:54;19.40;99.90
995;DHT22;486;48.726;8.964;2022-10-17T09:24:32;19.50;99.90
995;DHT22;486;48.726;8.964;2022-10-17T09:27:17;19.50;99.90
995;DHT22;486;48.726;8.964;2022-10-17T09:29:54;19.60;99.90
995;DHT22;486;48.726;8.964;2022-10-17T09:32:28;19.70;99.90
995;DHT22;486;48.726;8.964;2022-10-17T09:34:59;19.80;99.90
995;DHT22;486;48.726;8.964;2022-10-17T09:37:32;19.90;99.90
995;DHT22;486;48.726;8.964;2022-10-17T09:40:01;20.00;99.90
995;DHT22;486;48.726;8.964;2022-10-17T09:42:31;20.20;99.90
995;DHT22;486;48.726;8.964;2022-10-17T09:45:12;20.30;99.90
995;DHT22;486;48.726;8.964;2022-10-17T09:47:48;20.50;99.90
995;DHT22;486;48.726;8.964;2022-10-17T09:50:26;20.50;99.90
995;DHT22;486;48.726;8.964;2022-10-17T09:52:59;20.50;99.90
995;DHT22;486;48.726;8.964;2022-10-17T09:55:37;20.60;99.90
995;DHT22;486;48.726;8.964;2022-10-17T09:58:09;20.70;99.90
995;DHT22;486;48.726;8.964;2022-10-17T10:00:40;20.80;99.90
995;DHT22;486;48.726;8.964;2022-10-17T10:03:15;20.80;99.90
995;DHT22;486;48.726;8.964;2022-10-17T10:06:03;20.90;99.90
995;DHT22;486;48.726;8.964;2022-10-17T10:08:35;21.00;99.90
995;DHT22;486;48.726;8.964;2022-10-17T10:11:17;20.90;99.90
995;DHT22;486;48.726;8.964;2022-10-17T10:13:47;20.80;99.90
995;DHT22;486;48.726;8.964;2022-10-17T10:16:20;20.80;99.90
995;DHT22;486;48.726;8.964;2022-10-17T10:18:51;20.80;99.90
995;DHT22;486;48.726;8.964;2022-10-17T10:21:24;20.90;99.90
995;DHT22;486;48.726;8.964;2022-10-17T10:24:12;20.90;99.90
995;DHT22;486;48.726;8.964;2022-10-17T10:26:43;21.00;99.90
995;DHT22;486;48.726;8.964;2022-10-17T10:29:26;21.00;99.90
995;DHT22;486;48.726;8.964;2022-10-17T10:32:07;21.10;99.90
995;DHT22;486;48.726;8.964;2022-10-17T10:34:42;21.10;99.90
995;DHT22;486;48.726;8.964;2022-10-17T10:37:19;21.20;99.90
995;DHT22;486;48.726;8.964;2022-10-17T10:39:51;21.20;99.90
995;DHT22;486;48.726;8.964;2022-10-17T10:42:24;21.30;99.90
995;DHT22;486;48.726;8.964;2022-10-17T10:44:57;21.40;99.90
995;DHT22;486;48.726;8.964;2022-10-17T10:47:29;21.40;99.90
995;DHT22;486;48.726;8.964;2022-10-17T10:50:27;21.50;99.90
995;DHT22;486;48.726;8.964;2022-10-17T10:53:12;21.60;99.90
995;DHT22;486;48.726;8.964;2022-10-17T10:55:49;21.70;99.90
995;DHT22;486;48.726;8.964;2022-10-17T10:58:27;21.80;99.90
995;DHT22;486;48.726;8.964;2022-10-17T11:01:04;21.90;99.90
995;DHT22;486;48.726;8.964;2022-10-17T11:03:41;21.90;99.90
995;DHT22;486;48.726;8.964;2022-10-17T11:06:21;22.10;99.90
995;DHT22;486;48.726;8.964;2022-10-17T11:09:09;22.20;99.90
995;DHT22;486;48.726;8.964;2022-10-17T11:11:43;22.40;99.90
995;DHT22;486;48.726;8.964;2022-10-17T11:14:18;22.50;99.90
995;DHT22;486;48.726;8.964;2022-10-17T11:17:10;22.60;99.90
995;DHT22;486;48.726;8.964;2022-10-17T11:19:51;22.70;99.90
995;DHT22;486;48.726;8.964;2022-10-17T11:22:31;22.80;99.90
995;DHT22;486;48.726;8.964;2022-10-17T11:25:05;23.00;99.90
995;DHT22;486;48.726;8.964;2022-10-17T11:27:42;23.10;99.90
995;DHT22;486;48.726;8.964;2022-10-17T11:30:13;23.30;99.90
995;DHT22;486;48.726;8.964;2022-10-17T11:32:45;23.30;99.90
995;DHT22;486;48.726;8.964;2022-10-17T11:35:23;23.40;99.90
995;DHT22;486;48.726;8.964;2022-10-17T11:38:05;23.50;99.90
995;DHT22;486;48.726;8.964;2022-10-17T11:40:44;23.50;99.90
995;DHT22;486;48.726;8.964;2022-10-17T11:43:17;23.70;99.90
995;DHT22;486;48.726;8.964;2022-10-17T11:45:52;23.70;99.90
995;DHT22;486;48.726;8.964;2022-10-17T11:48:26;23.70;99.90
995;DHT22;486;48.726;8.964;2022-10-17T11:51:03;23.90;99.90
995;DHT22;486;48.726;8.964;2022-10-17T11:53:45;24.00;99.90
995;DHT22;486;48.726;8.964;2022-10-17T11:56:25;24.10;99.90
995;DHT22;486;48.726;8.964;2022-10-17T11:59:13;24.30;99.90
995;DHT22;486;48.726;8.964;2022-10-17T12:01:55;24.40;99.90
995;DHT22;486;48.726;8.964;2022-10-17T12:04:39;24.60;99.50
995;DHT22;486;48.726;8.964;2022-10-17T12:07:16;24.90;98.80
995;DHT22;486;48.726;8.964;2022-10-17T12:09:53;25.10;98.80
995;DHT22;486;48.726;8.964;2022-10-17T12:12:31;25.30;98.10
995;DHT22;486;48.726;8.964;2022-10-17T12:15:27;25.40;96.80
995;DHT22;486;48.726;8.964;2022-10-17T12:17:58;25.70;97.00
995;DHT22;486;48.726;8.964;2022-10-17T12:20:30;25.80;92.90
995;DHT22;486;48.726;8.964;2022-10-17T12:23:24;25.70;91.80
995;DHT22;486;48.726;8.964;2022-10-17T12:25:57;25.50;90.80
995;DHT22;486;48.726;8.964;2022-10-17T12:28:31;25.50;90.30
995;DHT22;486;48.726;8.964;2022-10-17T12:31:09;25.60;88.30
995;DHT22;486;48.726;8.964;2022-10-17T12:33:51;25.80;89.30
995;DHT22;486;48.726;8.964;2022-10-17T12:36:45;26.00;87.40
995;DHT22;486;48.726;8.964;2022-10-17T12:42:31;26.00;88.80
995;DHT22;486;48.726;8.964;2022-10-17T12:51:27;27.60;80.40
995;DHT22;486;48.726;8.964;2022-10-17T12:53:59;28.30;80.80
995;DHT22;486;48.726;8.964;2022-10-17T12:56:34;28.90;75.10
995;DHT22;486;48.726;8.964;2022-10-17T12:59:11;29.60;74.90
995;DHT22;486;48.726;8.964;2022-10-17T13:01:47;29.90;70.30
995;DHT22;486;48.726;8.964;2022-10-17T13:04:18;30.00;70.70
995;DHT22;486;48.726;8.964;2022-10-17T13:06:52;30.60;70.00
995;DHT22;486;48.726;8.964;2022-10-17T13:09:25;30.60;63.90
995;DHT22;486;48.726;8.964;2022-10-17T13:11:57;30.00;68.00
995;DHT22;486;48.726;8.964;2022-10-17T13:14:28;29.50;66.70
995;DHT22;486;48.726;8.964;2022-10-17T13:17:01;28.80;69.40
995;DHT22;486;48.726;8.964;2022-10-17T13:19:40;28.70;71.00
995;DHT22;486;48.726;8.964;2022-10-17T13:22:13;29.00;70.20
995;DHT22;486;48.726;8.964;2022-10-17T13:24:44;29.20;68.30
995;DHT22;486;48.726;8.964;2022-10-17T13:27:23;29.70;71.00
995;DHT22;486;48.726;8.964;2022-10-17T13:29:54;29.40;72.70
995;DHT22;486;48.726;8.964;2022-10-17T13:32:34;29.20;72.90
995;DHT22;486;48.726;8.964;2022-10-17T13:35:06;29.50;73.80
995;DHT22;486;48.726;8.964;2022-10-17T13:37:38;30.40;74.40
995;DHT22;486;48.726;8.964;2022-10-17T13:40:14;31.40;71.80
995;DHT22;486;48.726;8.964;2022-10-17T13:42:45;31.90;66.40
995;DHT22;486;48.726;8.964;2022-10-17T13:45:19;31.40;65.90
995;DHT22;486;48.726;8.964;2022-10-17T13:47:52;30.30;68.90
995;DHT22;486;48.726;8.964;2022-10-17T13:50:26;29.50;71.60
995;DHT22;486;48.726;8.964;2022-10-17T13:53:17;30.20;68.10
995;DHT22;486;48.726;8.964;2022-10-17T13:55:56;30.30;66.30
995;DHT22;486;48.726;8.964;2022-10-17T13:59:39;30.10;64.30
995;DHT22;486;48.726;8.964;2022-10-17T14:02:14;30.20;63.80
995;DHT22;486;48.726;8.964;2022-10-17T14:04:46;29.90;62.50
995;DHT22;486;48.726;8.964;2022-10-17T14:07:24;29.80;64.50
995;DHT22;486;48.726;8.964;2022-10-17T14:09:54;29.80;65.40
995;DHT22;486;48.726;8.964;2022-10-17T14:12:23;29.80;65.20
995;DHT22;486;48.726;8.964;2022-10-17T14:14:53;29.40;64.20
995;DHT22;486;48.726;8.964;2022-10-17T14:17:25;29.50;65.90
995;DHT22;486;48.726;8.964;2022-10-17T14:19:59;29.70;66.10
995;DHT22;486;48.726;8.964;2022-10-17T14:22:34;29.50;65.00
995;DHT22;486;48.726;8.964;2022-10-17T14:25:04;29.60;67.30
995;DHT22;486;48.726;8.964;2022-10-17T14:27:55;29.90;65.30
995;DHT22;486;48.726;8.964;2022-10-17T14:30:34;29.70;64.30
995;DHT22;486;48.726;8.964;2022-10-17T14:33:06;29.70;64.40
995;DHT22;486;48.726;8.964;2022-10-17T14:35:39;29.60;65.90
995;DHT22;486;48.726;8.964;2022-10-17T14:38:17;29.40;67.20
995;DHT22;486;48.726;8.964;2022-10-17T14:40:49;29.20;66.90
995;DHT22;486;48.726;8.964;2022-10-17T14:43:21;29.40;65.90
995;DHT22;486;48.726;8.964;2022-10-17T14:45:52;29.50;66.50
995;DHT22;486;48.726;8.964;2022-10-17T14:48:26;29.30;65.60
995;DHT22;486;48.726;8.964;2022-10-17T14:51:10;29.00;67.00
995;DHT22;486;48.726;8.964;2022-10-17T14:53:42;29.00;66.10
995;DHT22;486;48.726;8.964;2022-10-17T14:56:22;28.80;67.60
995;DHT22;486;48.726;8.964;2022-10-17T14:58:52;28.60;69.20
995;DHT22;486;48.726;8.964;2022-10-17T15:01:22;28.30;70.10
995;DHT22;486;48.726;8.964;2022-10-17T15:03:50;27.90;69.00
995;DHT22;486;48.726;8.964;2022-10-17T15:06:26;27.00;72.10
995;DHT22;486;48.726;8.964;2022-10-17T15:08:56;26.80;73.70
995;DHT22;486;48.726;8.964;2022-10-17T15:11:25;26.30;75.30
995;DHT22;486;48.726;8.964;2022-10-17T15:13:54;25.80;78.00
995;DHT22;486;48.726;8.964;2022-10-17T15:16:24;25.30;79.80
995;DHT22;486;48.726;8.964;2022-10-17T15:18:54;25.10;82.10
995;DHT22;486;48.726;8.964;2022-10-17T15:21:27;25.30;82.50
995;DHT22;486;48.726;8.964;2022-10-17T15:23:56;25.30;82.10
995;DHT22;486;48.726;8.964;2022-10-17T15:26:29;25.30;81.50
995;DHT22;486;48.726;8.964;2022-10-17T15:29:00;25.30;82.20
995;DHT22;486;48.726;8.964;2022-10-17T15:31:29;25.20;82.10
995;DHT22;486;48.726;8.964;2022-10-17T15:34:00;25.00;82.30
995;DHT22;486;48.726;8.964;2022-10-17T15:36:34;24.90;82.70
995;DHT22;486;48.726;8.964;2022-10-17T15:39:08;24.80;82.80
995;DHT22;486;48.726;8.964;2022-10-17T15:41:37;24.70;83.00
995;DHT22;486;48.726;8.964;2022-10-17T15:44:06;24.60;84.30
995;DHT22;486;48.726;8.964;2022-10-17T15:46:35;24.60;85.90
995;DHT22;486;48.726;8.964;2022-10-17T15:49:11;24.50;88.10
995;DHT22;486;48.726;8.964;2022-10-17T15:51:44;24.50;89.50
995;DHT22;486;48.726;8.964;2022-10-17T15:54:13;24.40;90.60
995;DHT22;486;48.726;8.964;2022-10-17T15:56:48;24.30;90.10
995;DHT22;486;48.726;8.964;2022-10-17T15:59:22;24.10;90.30
995;DHT22;486;48.726;8.964;2022-10-17T16:01:54;23.90;90.80
995;DHT22;486;48.726;8.964;2022-10-17T16:04:23;23.60;91.60
995;DHT22;486;48.726;8.964;2022-10-17T16:06:57;23.50;91.80
995;DHT22;486;48.726;8.964;2022-10-17T16:09:26;23.40;92.80
995;DHT22;486;48.726;8.964;2022-10-17T16:11:56;23.10;93.50
995;DHT22;486;48.726;8.964;2022-10-17T16:14:25;22.50;95.70
995;DHT22;486;48.726;8.964;2022-10-17T16:16:54;22.10;97.30
995;DHT22;486;48.726;8.964;2022-10-17T16:19:24;21.80;98.60
995;DHT22;486;48.726;8.964;2022-10-17T16:21:57;21.80;98.60
995;DHT22;486;48.726;8.964;2022-10-17T16:24:28;21.80;99.10
995;DHT22;486;48.726;8.964;2022-10-17T16:26:57;21.70;99.00
995;DHT22;486;48.726;8.964;2022-10-17T16:29:26;21.90;99.90
995;DHT22;486;48.726;8.964;2022-10-17T16:31:55;22.00;99.90
995;DHT22;486;48.726;8.964;2022-10-17T16:34:24;22.10;99.90
995;DHT22;486;48.726;8.964;2022-10-17T16:36:57;22.00;99.90
995;DHT22;486;48.726;8.964;2022-10-17T16:39:26;21.80;99.90
995;DHT22;486;48.726;8.964;2022-10-17T16:41:55;21.60;99.90
995;DHT22;486;48.726;8.964;2022-10-17T16:44:24;21.60;99.90
995;DHT22;486;48.726;8.964;2022-10-17T16:46:53;21.50;99.90
995;DHT22;486;48.726;8.964;2022-10-17T16:49:22;21.40;99.90
995;DHT22;486;48.726;8.964;2022-10-17T16:51:51;21.30;99.90
995;DHT22;486;48.726;8.964;2022-10-17T16:54:23;21.10;99.90
995;DHT22;486;48.726;8.964;2022-10-17T16:56:52;20.90;99.90
995;DHT22;486;48.726;8.964;2022-10-17T16:59:22;20.80;99.90
995;DHT22;486;48.726;8.964;2022-10-17T17:01:51;20.70;99.90
995;DHT22;486;48.726;8.964;2022-10-17T17:04:20;20.70;99.90
995;DHT22;486;48.726;8.964;2022-10-17T17:06:49;20.70;99.90
995;DHT22;486;48.726;8.964;2022-10-17T17:09:18;20.60;99.90
995;DHT22;486;48.726;8.964;2022-10-17T17:11:50;20.50;99.90
995;DHT22;486;48.726;8.964;2022-10-17T17:14:19;20.40;99.90
995;DHT22;486;48.726;8.964;2022-10-17T17:16:48;20.40;99.90
995;DHT22;486;48.726;8.964;2022-10-17T17:19:17;20.40;99.90
995;DHT22;486;48.726;8.964;2022-10-17T17:21:46;20.30;99.90
995;DHT22;486;48.726;8.964;2022-10-17T17:24:16;20.30;99.90
995;DHT22;486;48.726;8.964;2022-10-17T17:26:51;20.20;99.90
995;DHT22;486;48.726;8.964;2022-10-17T17:29:22;20.10;99.90
995;DHT22;486;48.726;8.964;2022-10-17T17:31:51;19.90;99.90
995;DHT22;486;48.726;8.964;2022-10-17T17:34:20;19.80;99.90
995;DHT22;486;48.726;8.964;2022-10-17T17:36:49;19.80;99.90